createdAt,value
2022-12-11T00:03:21.678Z,79.95
2022-12-11T00:08:28.849Z,79.91
2022-12-11T00:13:36.043Z,79.85
2022-12-11T00:18:43.150Z,79.97
2022-12-11T00:23:51.395Z,79.87
2022-12-11T00:28:59.252Z,79.75
2022-12-11T00:34:04.775Z,79.69
2022-12-11T00:39:11.885Z,79.64
2022-12-11T00:44:19.155Z,79.81
2022-12-11T00:49:26.514Z,79.72
2022-12-11T00:54:34.972Z,79.65
2022-12-11T00:59:42.557Z,79.87
2022-12-11T01:04:49.661Z,79.81
2022-12-11T01:10:14.573Z,79.69
2022-12-11T01:15:23.109Z,79.58
2022-12-11T01:20:31.146Z,79.51
2022-12-11T01:25:39.335Z,79.55
2022-12-11T01:30:46.383Z,79.45
2022-12-11T01:35:53.382Z,79.53
2022-12-11T01:41:00.410Z,79.46
2022-12-11T01:46:07.693Z,79.38
2022-12-11T01:51:15.328Z,79.39
2022-12-11T01:56:25.250Z,79.33
2022-12-11T02:01:36.742Z,79.32
2022-12-11T02:06:46.876Z,79.45
2022-12-11T02:12:02.655Z,79.29
2022-12-11T02:17:16.049Z,79.35
2022-12-11T02:22:45.390Z,79.21
2022-12-11T02:27:59.774Z,79.15
2022-12-11T02:33:08.758Z,79.08
2022-12-11T02:38:21.059Z,79.10
2022-12-11T02:43:28.787Z,79.06
2022-12-11T02:48:37.624Z,78.92
2022-12-11T02:53:46.452Z,79.07
2022-12-11T02:58:59.123Z,79.19
2022-12-11T03:04:06.231Z,79.14
2022-12-11T03:09:14.894Z,78.99
2022-12-11T03:14:22.150Z,79.09
2022-12-11T03:19:36.688Z,79.08
2022-12-11T03:24:47.665Z,79.04
2022-12-11T03:30:00.040Z,79.06
2022-12-11T03:35:15.137Z,79.20
2022-12-11T03:40:26.081Z,79.29
2022-12-11T03:45:34.312Z,79.18
2022-12-11T03:50:43.351Z,79.19
2022-12-11T03:55:52.842Z,79.17
2022-12-11T04:00:59.872Z,79.09
2022-12-11T04:06:07.112Z,79.14
2022-12-11T04:11:31.805Z,79.06
2022-12-11T04:16:38.862Z,79.14
2022-12-11T04:22:03.575Z,79.28
2022-12-11T04:27:10.699Z,79.23
2022-12-11T04:32:17.660Z,79.35
2022-12-11T04:37:24.638Z,79.18
2022-12-11T04:42:31.696Z,79.04
2022-12-11T04:47:39.698Z,78.86
2022-12-11T04:52:47.228Z,78.83
2022-12-11T04:57:54.514Z,78.93
2022-12-11T05:03:01.697Z,78.89
2022-12-11T05:08:09.535Z,78.89
2022-12-11T05:13:14.965Z,78.95
2022-12-11T05:18:22.749Z,78.89
2022-12-11T05:23:30.997Z,78.76
2022-12-11T05:28:39.906Z,78.78
2022-12-11T05:33:47.931Z,78.82
2022-12-11T05:38:55.477Z,78.96
2022-12-11T05:44:02.901Z,78.84
2022-12-11T05:49:11.803Z,78.97
2022-12-11T05:54:19.113Z,79.01
2022-12-11T05:59:26.427Z,78.97
2022-12-11T06:04:33.404Z,78.86
2022-12-11T06:09:40.452Z,78.97
2022-12-11T06:14:47.517Z,78.99
2022-12-11T06:19:54.625Z,79.07
2022-12-11T06:25:01.756Z,79.01
2022-12-11T06:30:11.239Z,79.01
2022-12-11T06:35:18.583Z,79.01
2022-12-11T06:40:25.633Z,78.90
2022-12-11T06:45:32.781Z,78.74
2022-12-11T06:50:40.873Z,78.68
2022-12-11T06:55:47.926Z,78.65
2022-12-11T07:00:54.988Z,78.73
2022-12-11T07:06:04.488Z,78.71
2022-12-11T07:11:13.716Z,78.75
2022-12-11T07:16:21.724Z,78.76
2022-12-11T07:21:28.789Z,78.86
2022-12-11T07:26:36.060Z,78.96
2022-12-11T07:31:43.219Z,78.91
2022-12-11T07:36:50.299Z,78.95
2022-12-11T07:41:57.371Z,78.93
2022-12-11T07:47:04.437Z,78.94
2022-12-11T07:52:11.543Z,78.88
2022-12-11T07:57:18.685Z,78.98
2022-12-11T08:02:25.720Z,78.78
2022-12-11T08:07:34.741Z,78.81
2022-12-11T08:12:41.732Z,78.87
2022-12-11T08:17:48.759Z,78.95
2022-12-11T08:22:59.150Z,78.88
2022-12-11T08:28:06.929Z,78.82
2022-12-11T08:33:13.975Z,78.80
2022-12-11T08:38:25.444Z,78.87
2022-12-11T08:43:34.501Z,79.02
2022-12-11T08:48:43.533Z,79.02
2022-12-11T08:53:52.615Z,78.97
2022-12-11T08:59:02.917Z,78.84
2022-12-11T09:04:09.892Z,78.74
2022-12-11T09:09:16.990Z,78.83
2022-12-11T09:14:24.017Z,78.83
2022-12-11T09:19:32.510Z,78.82
2022-12-11T09:24:39.897Z,78.83
2022-12-11T09:29:47.002Z,78.73
2022-12-11T09:34:54.650Z,78.78
2022-12-11T09:40:05.564Z,78.87
2022-12-11T09:45:17.885Z,78.77
2022-12-11T09:50:33.930Z,78.77
2022-12-11T09:55:50.416Z,78.58
2022-12-11T10:01:04.511Z,78.41
2022-12-11T10:06:20.518Z,78.58
2022-12-11T10:11:43.410Z,78.56
2022-12-11T10:16:54.073Z,78.45
2022-12-11T10:22:04.509Z,78.46
2022-12-11T10:27:20.087Z,78.21
2022-12-11T10:32:33.650Z,78.24
2022-12-11T10:37:42.330Z,78.35
2022-12-11T10:42:57.263Z,78.43
2022-12-11T10:48:29.101Z,78.55
2022-12-11T10:54:23.679Z,78.56
2022-12-11T10:59:45.592Z,78.65
2022-12-11T11:04:59.404Z,78.61
2022-12-11T11:10:19.223Z,78.52
2022-12-11T11:15:29.753Z,78.45
2022-12-11T11:20:37.293Z,78.44
2022-12-11T11:25:54.065Z,78.39
2022-12-11T11:31:05.248Z,78.54
2022-12-11T11:36:24.088Z,78.61
2022-12-11T11:41:42.191Z,78.41
2022-12-11T11:46:58.367Z,78.53
2022-12-11T11:52:13.899Z,78.38
2022-12-11T11:57:34.068Z,78.35
2022-12-11T12:02:42.235Z,78.25
2022-12-11T12:08:00.094Z,78.52
2022-12-11T12:13:47.663Z,78.51
2022-12-11T12:18:53.852Z,78.29
2022-12-11T12:24:12.309Z,78.44
2022-12-11T12:29:30.302Z,78.39
2022-12-11T12:34:52.915Z,78.39
2022-12-11T12:40:15.965Z,78.45
2022-12-11T12:45:30.322Z,78.46
2022-12-11T12:50:43.018Z,78.34
2022-12-11T12:55:51.511Z,78.34
2022-12-11T13:01:09.983Z,78.30
2022-12-11T13:06:17.210Z,78.34
2022-12-11T13:11:35.349Z,78.37
2022-12-11T13:16:43.944Z,78.34
2022-12-11T13:22:00.482Z,78.33
2022-12-11T13:27:23.988Z,78.44
2022-12-11T13:32:34.388Z,78.34
2022-12-11T13:37:44.662Z,78.35
2022-12-11T13:42:56.103Z,78.28
2022-12-11T13:48:06.062Z,78.38
2022-12-11T13:53:19.305Z,78.35
2022-12-11T13:58:26.828Z,78.36
2022-12-11T14:03:35.273Z,78.30
2022-12-11T14:08:46.374Z,78.37
2022-12-11T14:13:53.428Z,78.33
2022-12-11T14:19:04.959Z,78.46
2022-12-11T14:24:15.446Z,78.46
2022-12-11T14:29:30.845Z,78.40
2022-12-11T14:34:43.697Z,78.52
2022-12-11T14:39:57.408Z,78.47
2022-12-11T14:45:08.628Z,78.56
2022-12-11T14:50:22.648Z,78.54
2022-12-11T14:55:33.291Z,78.61
2022-12-11T15:00:40.748Z,78.69
2022-12-11T15:05:55.002Z,78.70
2022-12-11T15:11:09.380Z,78.75
2022-12-11T15:16:17.663Z,78.71
2022-12-11T15:21:32.612Z,78.69
2022-12-11T15:26:45.325Z,78.88
2022-12-11T15:32:02.540Z,78.88
2022-12-11T15:37:20.530Z,78.91
2022-12-11T15:42:33.876Z,79.04
2022-12-11T15:47:41.049Z,78.99
2022-12-11T15:52:48.763Z,79.05
2022-12-11T15:57:58.691Z,79.14
2022-12-11T16:03:05.902Z,78.97
2022-12-11T16:08:16.373Z,78.91
2022-12-11T16:13:23.699Z,78.98
2022-12-11T16:18:33.719Z,78.98
2022-12-11T16:23:40.794Z,79.09
2022-12-11T16:28:47.864Z,79.11
2022-12-11T16:33:54.931Z,79.14
2022-12-11T16:39:02.315Z,78.98
2022-12-11T16:44:10.708Z,79.16
2022-12-11T16:49:17.779Z,79.14
2022-12-11T16:54:24.868Z,79.12
2022-12-11T16:59:36.930Z,79.14
2022-12-11T17:04:47.036Z,79.20
2022-12-11T17:09:57.736Z,79.34
2022-12-11T17:15:05.279Z,79.45
2022-12-11T17:20:14.233Z,79.42
2022-12-11T17:25:22.676Z,79.35
2022-12-11T17:30:29.730Z,79.35
2022-12-11T17:35:36.951Z,79.23
2022-12-11T17:40:45.267Z,79.35
2022-12-11T17:45:53.478Z,79.35
2022-12-11T17:51:03.844Z,79.41
2022-12-11T17:56:12.412Z,79.47
2022-12-11T18:01:18.317Z,79.68
2022-12-11T18:06:25.336Z,79.60
2022-12-11T18:11:32.484Z,79.54
2022-12-11T18:16:40.141Z,79.40
2022-12-11T18:21:47.470Z,79.44
2022-12-11T18:26:54.643Z,79.45
2022-12-11T18:32:01.901Z,79.39
2022-12-11T18:37:09.315Z,79.40
2022-12-11T18:42:33.346Z,79.35
2022-12-11T18:47:41.447Z,79.54
2022-12-11T18:52:49.064Z,79.51
2022-12-11T18:57:56.406Z,79.47
2022-12-11T19:03:03.595Z,79.45
2022-12-11T19:08:11.248Z,79.47
2022-12-11T19:13:18.578Z,79.45
2022-12-11T19:18:26.914Z,79.42
2022-12-11T19:23:33.973Z,79.39
2022-12-11T19:28:41.587Z,79.53
2022-12-11T19:33:49.164Z,79.51
2022-12-11T19:39:01.489Z,79.58
2022-12-11T19:44:09.399Z,79.50
2022-12-11T19:49:16.496Z,79.56
2022-12-11T19:54:23.604Z,79.60
2022-12-11T19:59:30.634Z,79.51
2022-12-11T20:04:37.852Z,79.50
2022-12-11T20:09:44.924Z,79.49
2022-12-11T20:14:52.006Z,79.58
2022-12-11T20:19:59.183Z,79.62
2022-12-11T20:25:07.597Z,79.64
2022-12-11T20:30:15.716Z,79.66
2022-12-11T20:35:22.903Z,79.62
2022-12-11T20:40:29.937Z,79.59
2022-12-11T20:45:37.069Z,79.64
2022-12-11T20:50:44.226Z,79.69
2022-12-11T20:55:51.346Z,79.58
2022-12-11T21:00:58.598Z,79.48
2022-12-11T21:06:05.896Z,79.61
2022-12-11T21:11:12.956Z,79.70
2022-12-11T21:16:20.345Z,79.71
2022-12-11T21:21:28.097Z,79.67
2022-12-11T21:26:35.135Z,79.59
2022-12-11T21:31:42.315Z,79.60
2022-12-11T21:36:54.933Z,79.67
2022-12-11T21:42:03.517Z,79.67
2022-12-11T21:47:10.668Z,79.71
2022-12-11T21:52:17.965Z,79.67
2022-12-11T21:57:26.739Z,79.61
2022-12-11T22:02:40.449Z,79.73
2022-12-11T22:07:48.354Z,79.74
2022-12-11T22:12:55.613Z,79.62
2022-12-11T22:18:02.729Z,79.59
2022-12-11T22:23:11.535Z,79.55
2022-12-11T22:28:18.623Z,79.61
2022-12-11T22:33:25.899Z,79.65
2022-12-11T22:38:32.942Z,79.73
2022-12-11T22:43:40.012Z,79.73
2022-12-11T22:48:47.033Z,79.67
2022-12-11T22:53:54.529Z,79.65
2022-12-11T22:59:01.548Z,79.65
2022-12-11T23:04:08.960Z,79.61
2022-12-11T23:09:16.041Z,79.66
2022-12-11T23:14:23.376Z,79.54
2022-12-11T23:19:30.601Z,79.50
2022-12-11T23:24:37.651Z,79.63
2022-12-11T23:29:44.747Z,79.74
2022-12-11T23:34:51.784Z,79.69
2022-12-11T23:39:59.002Z,79.70
2022-12-11T23:45:07.054Z,79.65
2022-12-11T23:50:12.555Z,79.58
2022-12-11T23:55:19.710Z,79.56
